Time;durP1;ratioP1;P1;durP2;ratioP2;P2;SDS_P1;SDS_P2;PMS_P1;PMS_P2;Temp;Humidity;BMP_temperature;BMP_pressure;BME280_temperature;BME280_humidity;BME280_pressure;Samples;Min_cycle;Max_cycle;Signal;HPM_P1;HPM_P2
2023/04/21 00:01:13;;;;;;;2.22;1.05;;;9.30;57.10;;;;;;2181851;58;21421;-73
2023/04/21 00:03:40;;;;;;;2.80;1.27;;;9.30;57.10;;;;;;2183408;58;21075;-73
2023/04/21 00:06:08;;;;;;;2.50;1.15;;;9.20;57.10;;;;;;2395691;57;20991;-73
2023/04/21 00:08:39;;;;;;;2.47;1.17;;;9.10;57.10;;;;;;2395815;57;20947;-72
2023/04/21 00:11:08;;;;;;;2.70;1.48;;;9.10;57.20;;;;;;2387215;56;21769;-71
2023/04/21 00:13:35;;;;;;;2.78;1.27;;;9.10;57.40;;;;;;2176784;57;21031;-72
2023/04/21 00:16:02;;;;;;;2.58;1.00;;;9.00;57.50;;;;;;2385233;57;21795;-73
2023/04/21 00:18:28;;;;;;;2.20;1.02;;;9.00;57.50;;;;;;2182735;58;21065;-72
2023/04/21 00:20:55;;;;;;;2.30;1.17;;;9.00;57.70;;;;;;2387804;57;21021;-71
2023/04/21 00:23:21;;;;;;;2.95;0.90;;;8.90;57.60;;;;;;2180956;57;21025;-72
2023/04/21 00:25:47;;;;;;;2.70;1.17;;;8.90;57.70;;;;;;2395487;57;21124;-72
2023/04/21 00:28:15;;;;;;;3.33;1.20;;;8.90;57.70;;;;;;2394403;57;20948;-73
2023/04/21 00:30:42;;;;;;;2.03;0.93;;;8.90;57.80;;;;;;2178926;57;20996;-71
2023/04/21 00:33:08;;;;;;;2.20;0.85;;;8.90;57.80;;;;;;2394467;57;21026;-72
2023/04/21 00:35:36;;;;;;;1.95;0.88;;;8.90;57.80;;;;;;2392664;57;21021;-72
2023/04/21 00:38:03;;;;;;;2.25;1.10;;;8.80;57.70;;;;;;2183634;58;21051;-73
2023/04/21 00:40:31;;;;;;;2.10;0.95;;;8.80;57.70;;;;;;2182921;58;20971;-73
2023/04/21 00:42:58;;;;;;;2.60;1.10;;;8.80;57.60;;;;;;2385830;57;21844;-72
2023/04/21 00:45:24;;;;;;;2.65;1.30;;;8.80;57.60;;;;;;2180214;57;21642;-73
2023/04/21 00:47:55;;;;;;;2.37;1.33;;;8.70;57.50;;;;;;2181163;57;21095;-71
2023/04/21 00:50:21;;;;;;;2.00;1.00;;;8.70;57.60;;;;;;2183218;58;21007;-71
2023/04/21 00:52:48;;;;;;;2.80;1.40;;;8.70;57.60;;;;;;2182263;58;21090;-72
2023/04/21 00:55:14;;;;;;;2.85;1.27;;;8.60;57.50;;;;;;2183221;58;21066;-73
2023/04/21 00:57:41;;;;;;;4.18;1.20;;;8.60;57.50;;;;;;2182654;58;20991;-73
2023/04/21 01:00:07;;;;;;;2.75;1.40;;;8.60;57.50;;;;;;2177118;57;21032;-71
2023/04/21 01:02:38;;;;;;;3.03;1.40;;;8.50;57.30;;;;;;2183245;58;21889;-73
2023/04/21 01:05:06;;;;;;;3.00;1.35;;;8.30;57.10;;;;;;2183196;58;20975;-71
2023/04/21 01:07:36;;;;;;;3.03;1.40;;;8.40;57.30;;;;;;2183639;57;21025;-72
2023/04/21 01:10:03;;;;;;;3.00;1.65;;;8.50;57.30;;;;;;2179453;57;21830;-72
2023/04/21 01:12:29;;;;;;;2.75;1.30;;;8.30;57.20;;;;;;2388124;57;21582;-72
2023/04/21 01:14:59;;;;;;;2.97;1.35;;;8.30;57.20;;;;;;2393140;57;21452;-73
2023/04/21 01:17:28;;;;;;;2.65;1.30;;;8.30;57.30;;;;;;2395927;57;21924;-72
2023/04/21 01:19:56;;;;;;;3.17;1.52;;;8.20;57.20;;;;;;2183989;58;21077;-73
2023/04/21 01:22:23;;;;;;;3.12;1.60;;;8.20;57.10;;;;;;2395241;57;21092;-73
2023/04/21 01:24:50;;;;;;;3.65;1.80;;;8.10;57.10;;;;;;2393382;57;21087;-71
2023/04/21 01:27:18;;;;;;;2.85;1.40;;;8.10;57.20;;;;;;2183028;58;20951;-72
2023/04/21 01:29:48;;;;;;;3.20;1.40;;;8.00;57.20;;;;;;2394979;57;21870;-73
2023/04/21 01:32:16;;;;;;;2.40;1.10;;;8.00;57.20;;;;;;2389857;57;21421;-72
2023/04/21 01:34:42;;;;;;;2.90;1.37;;;7.90;57.10;;;;;;2179981;57;21911;-71
2023/04/21 01:37:10;;;;;;;2.70;1.27;;;7.90;57.20;;;;;;2183332;58;20963;-70
2023/04/21 01:39:39;;;;;;;2.90;1.40;;;7.80;57.10;;;;;;2182394;58;20976;-71
2023/04/21 01:42:05;;;;;;;3.22;1.60;;;7.80;57.10;;;;;;2395278;57;21007;-71
2023/04/21 01:44:32;;;;;;;3.58;1.70;;;7.70;57.00;;;;;;2395128;57;20947;-72
2023/04/21 01:46:58;;;;;;;4.07;1.65;;;7.70;57.10;;;;;;2184552;58;21033;-73
2023/04/21 01:49:26;;;;;;;4.22;1.30;;;7.60;57.20;;;;;;2387435;57;20995;-72
2023/04/21 01:51:53;;;;;;;2.47;1.02;;;7.60;57.20;;;;;;2394974;57;21517;-72
2023/04/21 01:54:19;;;;;;;3.30;1.35;;;7.50;57.10;;;;;;2183059;58;20991;-71
2023/04/21 01:56:46;;;;;;;3.20;1.30;;;7.50;57.10;;;;;;2183306;57;21530;-71
2023/04/21 01:59:12;;;;;;;2.95;1.37;;;7.40;57.20;;;;;;2388439;57;21001;-72
2023/04/21 02:01:42;;;;;;;2.83;1.23;;;7.40;57.20;;;;;;2182975;58;21550;-71
2023/04/21 02:04:08;;;;;;;3.10;1.10;;;7.40;57.20;;;;;;2182959;58;20978;-73
2023/04/21 02:06:34;;;;;;;3.00;1.20;;;7.40;57.30;;;;;;2183218;58;21453;-71
2023/04/21 02:09:01;;;;;;;2.90;1.20;;;7.30;57.20;;;;;;2395482;57;21038;-73
2023/04/21 02:11:28;;;;;;;3.60;1.50;;;7.30;57.30;;;;;;2395182;57;21059;-72
2023/04/21 02:13:54;;;;;;;2.72;1.23;;;7.20;57.20;;;;;;2182512;58;20959;-72
2023/04/21 02:16:24;;;;;;;3.87;1.60;;;7.20;57.20;;;;;;2395555;57;20943;-72
2023/04/21 02:18:55;;;;;;;3.58;1.60;;;7.10;57.20;;;;;;2394903;57;21040;-72
2023/04/21 02:21:22;;;;;;;3.37;1.48;;;7.10;57.20;;;;;;2395659;57;21030;-71
2023/04/21 02:23:48;;;;;;;4.45;1.50;;;7.10;57.20;;;;;;2395377;57;21006;-71
2023/04/21 02:26:16;;;;;;;3.28;1.50;;;7.00;57.20;;;;;;2395543;57;21036;-72
2023/04/21 02:28:43;;;;;;;3.08;1.30;;;7.00;57.30;;;;;;2182396;58;20991;-71
2023/04/21 02:31:10;;;;;;;3.15;1.52;;;7.00;57.30;;;;;;2182579;58;20998;-70
2023/04/21 02:33:36;;;;;;;2.97;1.50;;;6.90;57.30;;;;;;2182994;58;21939;-70
2023/04/21 02:36:03;;;;;;;3.30;1.23;;;6.90;57.30;;;;;;2182942;58;21063;-71
2023/04/21 02:38:29;;;;;;;3.03;1.50;;;6.90;57.40;;;;;;2183282;58;21038;-73
2023/04/21 02:40:58;;;;;;;2.95;1.10;;;6.80;57.40;;;;;;2182793;58;21074;-71
2023/04/21 02:43:26;;;;;;;2.95;1.20;;;6.80;57.40;;;;;;2182738;58;21003;-71
2023/04/21 02:45:52;;;;;;;3.20;1.40;;;6.80;57.50;;;;;;2183071;58;21040;-71
2023/04/21 02:48:21;;;;;;;3.30;1.60;;;6.80;57.50;;;;;;2182828;58;21086;-72
2023/04/21 02:50:49;;;;;;;4.03;1.77;;;6.80;57.60;;;;;;2390094;57;21235;-72
2023/04/21 02:53:15;;;;;;;3.25;1.60;;;6.70;57.60;;;;;;2390852;57;20991;-71
2023/04/21 02:55:42;;;;;;;2.80;1.60;;;6.70;57.50;;;;;;2394803;57;21616;-72
2023/04/21 02:58:11;;;;;;;3.03;1.55;;;6.70;57.60;;;;;;2182527;58;20963;-70
2023/04/21 03:00:39;;;;;;;3.10;1.60;;;6.60;57.50;;;;;;2182794;58;20967;-70
2023/04/21 03:03:05;;;;;;;3.97;1.65;;;6.60;57.60;;;;;;2395525;57;21047;-73
2023/04/21 03:05:31;;;;;;;3.03;1.50;;;6.60;57.70;;;;;;2385155;57;20961;-72
2023/04/21 03:07:59;;;;;;;3.62;1.83;;;6.60;57.70;;;;;;2184462;57;21040;-71
2023/04/21 03:10:25;;;;;;;3.37;1.75;;;6.60;57.70;;;;;;2391295;57;21004;-71
2023/04/21 03:12:52;;;;;;;2.92;1.48;;;6.50;57.70;;;;;;2177054;57;20966;-70
2023/04/21 03:15:19;;;;;;;3.25;1.77;;;6.50;57.70;;;;;;2389471;57;21068;-72
2023/04/21 03:17:46;;;;;;;3.22;1.60;;;6.50;57.70;;;;;;2180126;57;20955;-70
2023/04/21 03:20:14;;;;;;;3.80;1.77;;;6.50;57.70;;;;;;2177193;57;20988;-71
2023/04/21 03:22:41;;;;;;;3.37;1.70;;;6.50;57.70;;;;;;2395039;57;21015;-71
2023/04/21 03:25:07;;;;;;;4.15;1.62;;;6.50;57.70;;;;;;2392817;57;20996;-71
2023/04/21 03:27:34;;;;;;;3.75;1.90;;;6.40;57.60;;;;;;2387179;57;20988;-72
2023/04/21 03:30:00;;;;;;;2.60;1.42;;;6.40;57.60;;;;;;2182859;58;21080;-71
2023/04/21 03:32:27;;;;;;;3.25;1.62;;;6.40;57.70;;;;;;2385377;57;21128;-71
2023/04/21 03:34:54;;;;;;;3.10;1.52;;;6.30;57.60;;;;;;2394336;57;20999;-72
2023/04/21 03:37:20;;;;;;;3.47;1.80;;;6.30;57.50;;;;;;2183352;58;21010;-73
2023/04/21 03:39:46;;;;;;;3.62;2.03;;;6.30;57.50;;;;;;2392154;57;20973;-71
2023/04/21 03:42:13;;;;;;;3.87;1.98;;;6.30;57.60;;;;;;2177093;57;21003;-71
2023/04/21 03:44:39;;;;;;;3.62;2.10;;;6.20;57.50;;;;;;2182624;58;20975;-73
2023/04/21 03:47:05;;;;;;;3.30;1.67;;;6.20;57.60;;;;;;2394737;57;20999;-71
2023/04/21 03:49:37;;;;;;;3.65;1.67;;;6.20;57.70;;;;;;2183680;58;20995;-71
2023/04/21 03:52:04;;;;;;;3.10;1.45;;;6.20;57.70;;;;;;2395496;57;20999;-72
2023/04/21 03:54:31;;;;;;;2.70;1.33;;;6.10;57.60;;;;;;2395240;57;20967;-72
2023/04/21 03:56:57;;;;;;;4.28;1.70;;;6.10;57.60;;;;;;2182689;58;20995;-71
2023/04/21 03:59:23;;;;;;;4.20;1.87;;;6.00;57.60;;;;;;2182833;58;21024;-73
2023/04/21 04:01:50;;;;;;;2.92;1.52;;;6.00;57.70;;;;;;2182635;58;20951;-72
2023/04/21 04:04:16;;;;;;;4.35;2.12;;;6.00;57.60;;;;;;2177797;57;22489;-73
2023/04/21 04:06:42;;;;;;;4.25;2.33;;;6.00;57.60;;;;;;2394885;57;21004;-72
2023/04/21 04:09:11;;;;;;;4.20;2.10;;;5.90;57.60;;;;;;2395839;57;21047;-73
2023/04/21 04:11:38;;;;;;;4.30;2.08;;;5.90;57.70;;;;;;2183118;58;20959;-73
2023/04/21 04:14:04;;;;;;;3.87;2.00;;;5.90;57.70;;;;;;2182480;58;20967;-73
2023/04/21 04:16:33;;;;;;;5.78;2.28;;;5.90;57.70;;;;;;2395148;57;21046;-72
2023/04/21 04:18:59;;;;;;;3.72;2.03;;;5.90;57.70;;;;;;2183164;58;21098;-73
2023/04/21 04:21:27;;;;;;;5.03;2.22;;;5.80;57.60;;;;;;2183006;58;21607;-71
2023/04/21 04:23:53;;;;;;;4.37;2.20;;;5.80;57.70;;;;;;2394935;57;21519;-72
2023/04/21 04:26:21;;;;;;;4.65;2.70;;;5.80;57.70;;;;;;2182647;58;21047;-71
2023/04/21 04:28:47;;;;;;;5.47;3.05;;;5.80;57.80;;;;;;2182695;58;21002;-71
2023/04/21 04:31:16;;;;;;;5.28;3.22;;;5.70;57.70;;;;;;2183213;58;21047;-71
2023/04/21 04:33:43;;;;;;;4.50;2.95;;;5.70;57.80;;;;;;2395429;57;20975;-71
2023/04/21 04:36:10;;;;;;;4.55;3.03;;;5.70;57.80;;;;;;2183508;58;21035;-70
2023/04/21 04:38:37;;;;;;;5.72;3.65;;;5.70;57.80;;;;;;2395408;57;21119;-72
2023/04/21 04:41:05;;;;;;;5.20;3.00;;;5.70;57.80;;;;;;2395337;57;21019;-71
2023/04/21 04:43:32;;;;;;;7.60;3.20;;;5.60;57.80;;;;;;2182888;58;21042;-73
2023/04/21 04:45:59;;;;;;;5.10;2.87;;;5.60;57.80;;;;;;2183033;57;21080;-70
2023/04/21 04:48:25;;;;;;;4.93;2.87;;;5.60;57.80;;;;;;2176117;57;21336;-71
2023/04/21 04:50:54;;;;;;;4.85;2.90;;;5.60;57.80;;;;;;2394213;57;21024;-71
2023/04/21 04:53:20;;;;;;;5.37;3.08;;;5.60;57.90;;;;;;2182747;57;20973;-72
2023/04/21 04:55:47;;;;;;;5.10;3.05;;;5.60;57.90;;;;;;2178281;57;20978;-71
2023/04/21 04:58:14;;;;;;;5.07;2.97;;;5.60;57.90;;;;;;2394392;57;21043;-71
2023/04/21 05:00:40;;;;;;;4.75;2.60;;;5.60;57.90;;;;;;2182404;58;21850;-71
2023/04/21 05:03:07;;;;;;;5.25;2.80;;;5.50;57.80;;;;;;2395225;57;20948;-70
2023/04/21 05:05:33;;;;;;;5.50;2.80;;;5.50;57.90;;;;;;2395113;57;21448;-71
2023/04/21 05:08:02;;;;;;;4.75;2.85;;;5.50;58.00;;;;;;2384913;57;21061;-72
2023/04/21 05:10:30;;;;;;;4.90;2.85;;;5.50;58.00;;;;;;2394317;57;20966;-73
2023/04/21 05:12:56;;;;;;;4.65;2.58;;;5.50;58.00;;;;;;2183178;58;20963;-71
2023/04/21 05:15:24;;;;;;;5.70;2.80;;;5.50;58.00;;;;;;2182715;58;21051;-70
2023/04/21 05:17:50;;;;;;;4.85;2.75;;;5.50;58.10;;;;;;2394273;57;21051;-73
2023/04/21 05:20:16;;;;;;;5.55;2.78;;;5.50;58.20;;;;;;2182280;58;20998;-70
2023/04/21 05:22:43;;;;;;;5.72;3.28;;;5.40;58.10;;;;;;2177203;57;21017;-73
2023/04/21 05:25:10;;;;;;;4.40;2.33;;;5.50;58.20;;;;;;2395081;57;21023;-73
2023/04/21 05:27:39;;;;;;;5.45;2.80;;;5.40;58.10;;;;;;2394514;57;21031;-73
2023/04/21 05:30:06;;;;;;;5.28;2.87;;;5.40;58.20;;;;;;2182233;58;21587;-71
2023/04/21 05:32:32;;;;;;;6.50;3.65;;;5.40;58.20;;;;;;2182571;58;20987;-71
2023/04/21 05:34:59;;;;;;;4.93;2.80;;;5.50;58.40;;;;;;2182937;57;21375;-70
2023/04/21 05:37:25;;;;;;;5.45;2.90;;;5.50;58.40;;;;;;2182945;57;21023;-71
2023/04/21 05:39:54;;;;;;;6.22;3.47;;;5.50;58.40;;;;;;2184618;58;21055;-72
2023/04/21 05:42:24;;;;;;;5.62;3.50;;;5.50;58.50;;;;;;2176041;57;21000;-73
2023/04/21 05:44:50;;;;;;;5.55;3.40;;;5.40;58.50;;;;;;2392908;57;21009;-72
2023/04/21 05:47:17;;;;;;;6.57;3.75;;;5.50;58.60;;;;;;2182769;58;20994;-70
2023/04/21 05:49:48;;;;;;;7.78;4.20;;;5.50;58.70;;;;;;2394822;57;21007;-72
2023/04/21 05:52:16;;;;;;;6.00;3.37;;;5.50;58.80;;;;;;2183409;58;20971;-72
2023/04/21 05:54:42;;;;;;;7.55;3.28;;;5.50;58.90;;;;;;2394914;57;20998;-73
2023/04/21 05:57:09;;;;;;;6.68;3.50;;;5.60;59.00;;;;;;2395427;57;21062;-72
2023/04/21 05:59:36;;;;;;;5.20;3.37;;;5.60;59.20;;;;;;2395271;57;22071;-71
2023/04/21 06:02:03;;;;;;;6.40;3.60;;;5.60;59.30;;;;;;2394873;57;21588;-71
2023/04/21 06:04:29;;;;;;;5.68;3.20;;;5.60;59.40;;;;;;2184434;58;21436;-71
2023/04/21 06:06:55;;;;;;;5.43;3.42;;;5.70;59.60;;;;;;2182753;58;21492;-73
2023/04/21 06:09:22;;;;;;;6.03;3.75;;;5.70;59.60;;;;;;2394665;57;20991;-72
2023/04/21 06:11:49;;;;;;;5.43;3.58;;;5.80;59.80;;;;;;2183399;58;21461;-71
2023/04/21 06:14:16;;;;;;;6.53;3.90;;;5.80;59.80;;;;;;2183511;58;21019;-73
2023/04/21 06:16:42;;;;;;;6.75;3.30;;;5.90;60.00;;;;;;2183942;58;20990;-73
2023/04/21 06:19:08;;;;;;;4.72;2.90;;;5.90;60.00;;;;;;2396941;57;20955;-74
2023/04/21 06:21:35;;;;;;;5.72;3.30;;;6.00;60.10;;;;;;2183165;57;21077;-72
2023/04/21 06:24:04;;;;;;;5.57;3.47;;;6.00;60.10;;;;;;2180361;57;21029;-71
2023/04/21 06:26:30;;;;;;;5.43;2.92;;;6.10;60.30;;;;;;2391661;57;21034;-73
2023/04/21 06:28:57;;;;;;;4.72;2.70;;;6.20;60.50;;;;;;2386161;57;20979;-72
2023/04/21 06:31:24;;;;;;;5.53;2.92;;;6.20;60.50;;;;;;2177436;57;21955;-73
2023/04/21 06:33:50;;;;;;;5.80;2.95;;;6.30;60.70;;;;;;2183779;58;21770;-72
2023/04/21 06:36:16;;;;;;;5.93;3.22;;;6.40;60.90;;;;;;2391563;57;21137;-73
2023/04/21 06:38:45;;;;;;;4.82;2.78;;;6.40;60.90;;;;;;2179080;57;20966;-72
2023/04/21 06:41:11;;;;;;;6.43;3.20;;;6.50;61.10;;;;;;2396415;57;21040;-72
2023/04/21 06:43:38;;;;;;;6.03;3.75;;;6.60;61.30;;;;;;2182402;57;21069;-74
2023/04/21 06:46:05;;;;;;;6.18;3.75;;;6.60;61.40;;;;;;2178650;57;20977;-71
2023/04/21 06:48:31;;;;;;;6.12;3.87;;;6.80;61.70;;;;;;2388252;57;21022;-74
2023/04/21 06:50:59;;;;;;;5.25;3.08;;;6.80;61.80;;;;;;2394336;57;21635;-74
2023/04/21 06:53:27;;;;;;;5.72;3.40;;;6.90;61.90;;;;;;2183923;58;21024;-74
2023/04/21 06:55:53;;;;;;;5.03;3.05;;;7.00;62.00;;;;;;2183350;58;21573;-74
2023/04/21 06:58:19;;;;;;;6.00;3.40;;;7.10;62.30;;;;;;2182852;58;21803;-73
2023/04/21 07:00:49;;;;;;;5.37;3.42;;;7.20;62.50;;;;;;2396231;57;21539;-74
2023/04/21 07:03:15;;;;;;;6.22;3.83;;;7.40;63.10;;;;;;2396204;57;20944;-74
2023/04/21 07:05:41;;;;;;;8.75;5.10;;;7.50;63.50;;;;;;2396212;57;20996;-74
2023/04/21 07:08:08;;;;;;;8.23;4.40;;;7.60;63.70;;;;;;2395907;57;21035;-72
2023/04/21 07:10:34;;;;;;;8.48;4.85;;;7.80;64.20;;;;;;2395711;57;21078;-73
2023/04/21 07:13:03;;;;;;;6.57;3.78;;;7.90;64.30;;;;;;2183756;58;21082;-72
2023/04/21 07:15:29;;;;;;;6.22;3.47;;;8.10;64.70;;;;;;2183509;58;20971;-74
2023/04/21 07:17:57;;;;;;;5.30;3.55;;;8.30;64.60;;;;;;2395887;57;21700;-72
2023/04/21 07:20:26;;;;;;;6.55;3.67;;;8.40;64.60;;;;;;2177762;57;20973;-73
2023/04/21 07:22:53;;;;;;;5.50;3.67;;;8.60;65.00;;;;;;2183764;58;21078;-74
2023/04/21 07:25:20;;;;;;;5.45;3.83;;;8.80;65.30;;;;;;2183791;58;20987;-73
2023/04/21 07:27:47;;;;;;;6.10;3.90;;;9.00;65.40;;;;;;2388540;57;21041;-75
2023/04/21 07:30:19;;;;;;;6.12;4.07;;;9.20;65.40;;;;;;2391285;57;21511;-74
2023/04/21 07:32:47;;;;;;;5.35;3.12;;;9.40;65.50;;;;;;2176270;57;20970;-74
2023/04/21 07:35:14;;;;;;;6.20;3.55;;;9.60;65.70;;;;;;2183916;58;21091;-74
2023/04/21 07:37:40;;;;;;;5.40;3.50;;;9.80;65.70;;;;;;2395408;57;20964;-74
2023/04/21 07:40:07;;;;;;;5.97;3.83;;;10.00;64.30;;;;;;2395481;57;20995;-74
2023/04/21 07:42:35;;;;;;;5.10;3.47;;;10.10;63.90;;;;;;2395331;57;20983;-75
2023/04/21 07:45:01;;;;;;;5.20;3.60;;;10.30;63.70;;;;;;2394952;57;22242;-75
2023/04/21 07:47:28;;;;;;;5.32;3.47;;;10.40;63.40;;;;;;2395130;57;21019;-74
2023/04/21 07:49:54;;;;;;;7.45;3.80;;;10.50;63.20;;;;;;2182547;58;21038;-74
2023/04/21 07:52:20;;;;;;;5.68;3.60;;;10.70;63.20;;;;;;2182209;58;20951;-75
2023/04/21 07:54:47;;;;;;;5.93;3.62;;;10.80;63.10;;;;;;2393903;57;20982;-74
2023/04/21 07:57:13;;;;;;;5.05;3.25;;;10.90;62.90;;;;;;2182565;58;21002;-73
2023/04/21 07:59:42;;;;;;;4.68;3.30;;;11.00;62.90;;;;;;2394229;57;22182;-74
2023/04/21 08:02:10;;;;;;;6.10;3.22;;;11.10;62.60;;;;;;2386254;57;21015;-74
2023/04/21 08:04:36;;;;;;;4.80;3.10;;;11.20;62.40;;;;;;2393381;57;20967;-75
2023/04/21 08:07:04;;;;;;;5.95;2.85;;;11.30;62.20;;;;;;2182579;58;20963;-74
2023/04/21 08:09:31;;;;;;;5.43;3.33;;;11.30;62.10;;;;;;2182152;58;21055;-75
2023/04/21 08:12:01;;;;;;;5.28;3.53;;;11.40;62.10;;;;;;2394434;57;20956;-75
2023/04/21 08:14:27;;;;;;;4.85;3.33;;;11.50;62.00;;;;;;2182613;58;20971;-75
2023/04/21 08:16:53;;;;;;;6.57;4.15;;;11.60;61.90;;;;;;2394849;57;20960;-74
2023/04/21 08:19:25;;;;;;;8.02;4.80;;;11.60;61.90;;;;;;2182224;58;21027;-74
2023/04/21 08:21:51;;;;;;;5.87;3.97;;;11.70;61.90;;;;;;2182649;58;20974;-75
2023/04/21 08:24:18;;;;;;;5.12;3.53;;;11.80;61.90;;;;;;2183468;57;20941;-75
2023/04/21 08:26:48;;;;;;;5.75;4.15;;;11.80;61.90;;;;;;2388846;57;23036;-75
2023/04/21 08:29:15;;;;;;;5.53;4.00;;;11.90;62.00;;;;;;2182694;58;21411;-75
2023/04/21 08:31:41;;;;;;;6.00;3.87;;;12.00;62.10;;;;;;2182423;58;21967;-74
2023/04/21 08:34:08;;;;;;;6.10;3.87;;;12.00;62.30;;;;;;2394912;57;20955;-74
2023/04/21 08:36:34;;;;;;;7.37;4.07;;;12.10;62.30;;;;;;2182075;58;21078;-75
2023/04/21 08:39:00;;;;;;;5.12;3.65;;;12.20;62.50;;;;;;2395009;57;21252;-75
2023/04/21 08:41:31;;;;;;;5.85;3.72;;;12.30;62.50;;;;;;2183397;58;21007;-74
2023/04/21 08:43:58;;;;;;;5.78;3.90;;;12.40;62.40;;;;;;2394629;57;21067;-75
2023/04/21 08:46:26;;;;;;;6.40;3.95;;;12.50;62.60;;;;;;2394790;57;21055;-75
2023/04/21 08:48:54;;;;;;;5.50;3.70;;;12.70;62.90;;;;;;2394834;57;21455;-75
2023/04/21 08:51:22;;;;;;;5.22;3.97;;;12.80;63.10;;;;;;2183457;58;21475;-75
2023/04/21 08:53:48;;;;;;;5.72;3.75;;;12.90;62.90;;;;;;2182138;58;21019;-76
2023/04/21 08:56:15;;;;;;;5.68;3.62;;;13.00;62.70;;;;;;2393900;57;21031;-75
2023/04/21 08:58:41;;;;;;;5.18;3.67;;;13.10;62.50;;;;;;2385577;57;21070;-75
2023/04/21 09:01:07;;;;;;;4.93;3.37;;;13.20;62.50;;;;;;2395022;57;20983;-74
2023/04/21 09:03:34;;;;;;;5.68;4.00;;;13.30;62.50;;;;;;2180892;57;21828;-74
2023/04/21 09:06:04;;;;;;;6.25;3.50;;;13.40;62.50;;;;;;2390494;57;20963;-77
2023/04/21 09:08:31;;;;;;;4.90;3.33;;;13.50;62.20;;;;;;2182213;58;21774;-75
2023/04/21 09:10:58;;;;;;;13.45;4.10;;;13.70;62.20;;;;;;2394517;57;21777;-74
2023/04/21 09:13:32;;;;;;;5.97;3.67;;;13.70;62.10;;;;;;2394827;57;21770;-75
2023/04/21 09:15:59;;;;;;;5.12;3.30;;;13.80;62.10;;;;;;2389503;57;21015;-75
2023/04/21 09:18:26;;;;;;;5.12;3.22;;;13.90;62.40;;;;;;2389876;57;20955;-76
2023/04/21 09:24:24;;;;;;;6.37;3.40;;;14.00;62.20;;;;;;2182078;58;20999;-76
2023/04/21 09:26:53;;;;;;;4.60;2.83;;;14.30;61.70;;;;;;2182478;58;21068;-75
2023/04/21 09:29:25;;;;;;;4.72;3.37;;;14.40;62.00;;;;;;2182666;58;20979;-75
2023/04/21 09:31:52;;;;;;;5.45;3.20;;;14.50;61.80;;;;;;2182304;57;20959;-76
2023/04/21 09:34:25;;;;;;;5.90;3.75;;;14.60;61.90;;;;;;2394683;57;21684;-75
2023/04/21 09:37:04;;;;;;;5.30;3.30;;;14.70;61.80;;;;;;2182143;58;20971;-76
2023/04/21 09:39:32;;;;;;;5.22;3.35;;;14.80;61.00;;;;;;2182519;58;21047;-75
2023/04/21 09:42:08;;;;;;;5.22;3.15;;;14.80;61.20;;;;;;2394939;57;20994;-77
2023/04/21 09:44:37;;;;;;;5.55;3.55;;;14.90;61.10;;;;;;2182125;58;21002;-76
2023/04/21 09:47:09;;;;;;;4.78;3.20;;;15.00;61.00;;;;;;2182314;58;21043;-75
2023/04/21 09:49:39;;;;;;;5.62;3.58;;;15.10;60.90;;;;;;2394553;57;21035;-77
2023/04/21 09:52:07;;;;;;;6.40;4.30;;;15.20;60.90;;;;;;2386781;57;21045;-76
2023/04/21 09:54:51;;;;;;;5.37;3.90;;;15.30;60.80;;;;;;2393715;57;21039;-75
2023/04/21 09:57:22;;;;;;;5.60;3.72;;;15.30;60.80;;;;;;2182769;58;20974;-75
2023/04/21 09:59:50;;;;;;;5.95;3.70;;;15.40;60.80;;;;;;2383320;57;21000;-75
2023/04/21 10:02:17;;;;;;;5.97;3.97;;;15.50;61.10;;;;;;2241587;57;3026000;-75
2023/04/21 10:04:44;;;;;;;5.57;3.85;;;15.60;61.00;;;;;;2395119;57;20994;-75
2023/04/21 10:07:10;;;;;;;5.87;3.97;;;15.70;60.90;;;;;;2182865;58;21487;-76
2023/04/21 10:09:44;;;;;;;6.10;3.80;;;15.80;61.00;;;;;;2182510;58;21086;-75
2023/04/21 10:12:10;;;;;;;5.65;4.12;;;15.90;60.50;;;;;;2183130;58;21050;-75
2023/04/21 10:14:37;;;;;;;5.90;4.18;;;16.00;61.10;;;;;;2182802;57;21112;-76
2023/04/21 10:17:04;;;;;;;6.30;4.20;;;16.00;61.10;;;;;;2383877;57;20973;-75
2023/04/21 10:19:35;;;;;;;6.50;4.32;;;16.20;60.80;;;;;;2389039;57;20989;-76
2023/04/21 10:22:04;;;;;;;6.50;4.47;;;16.20;60.70;;;;;;2394610;57;21023;-77
2023/04/21 10:24:35;;;;;;;6.50;4.37;;;16.30;60.50;;;;;;2394814;57;21008;-76
2023/04/21 10:27:02;;;;;;;7.40;4.40;;;16.40;60.30;;;;;;2394277;57;21018;-75
2023/04/21 10:29:32;;;;;;;6.12;4.40;;;16.50;60.10;;;;;;2394966;57;21485;-75
2023/04/21 10:32:06;;;;;;;5.37;3.90;;;16.50;59.90;;;;;;2178928;57;21034;-76
2023/04/21 10:34:35;;;;;;;4.93;3.50;;;16.60;60.20;;;;;;2180990;57;21361;-75
2023/04/21 10:37:10;;;;;;;5.45;3.72;;;16.70;60.30;;;;;;2394755;57;21030;-75
2023/04/21 10:39:50;;;;;;;5.28;4.10;;;16.80;59.90;;;;;;2394731;57;21060;-75
2023/04/21 10:42:19;;;;;;;5.28;3.80;;;16.90;59.80;;;;;;2395318;57;20975;-76
2023/04/21 10:45:10;;;;;;;5.30;3.87;;;16.90;59.80;;;;;;2182290;58;21511;-76
2023/04/21 10:47:51;;;;;;;4.55;2.83;;;17.00;59.40;;;;;;2182530;58;22008;-76
2023/04/21 10:50:26;;;;;;;5.15;3.15;;;17.10;59.30;;;;;;2395306;57;20991;-76
2023/04/21 10:53:08;;;;;;;4.72;3.17;;;17.20;59.40;;;;;;2394686;57;20964;-77
2023/04/21 10:55:36;;;;;;;;;;;17.30;59.70;;;;;;2186480;57;21025;-77
2023/04/21 10:58:04;;;;;;;3.92;2.53;;;17.40;59.40;;;;;;2177841;57;20121;-76
2023/04/21 11:00:32;;;;;;;5.07;3.35;;;17.50;60.40;;;;;;2383780;57;21000;-77
2023/04/21 11:03:02;;;;;;;5.00;3.22;;;17.60;60.20;;;;;;2176448;58;21051;-75
2023/04/21 11:05:39;;;;;;;5.15;3.33;;;17.70;59.80;;;;;;2395517;57;21504;-74
2023/04/21 11:08:13;;;;;;;4.78;3.37;;;17.70;59.80;;;;;;2395011;57;21064;-75
2023/04/21 11:10:50;;;;;;;5.75;3.40;;;17.90;59.70;;;;;;2391034;57;21029;-76
2023/04/21 11:13:19;;;;;;;4.60;2.95;;;18.00;60.00;;;;;;2178152;57;20967;-75
2023/04/21 11:16:04;;;;;;;5.05;3.37;;;18.10;60.20;;;;;;2183008;58;21007;-74
2023/04/21 11:18:35;;;;;;;5.05;3.65;;;18.20;59.00;;;;;;2183697;57;20966;-73
2023/04/21 11:21:20;;;;;;;5.25;3.37;;;18.30;59.90;;;;;;2182187;58;20991;-74
2023/04/21 11:24:04;;;;;;;5.30;3.42;;;18.40;59.40;;;;;;2182429;58;21056;-77
2023/04/21 11:26:32;;;;;;;4.05;2.70;;;18.50;59.00;;;;;;2184315;58;21023;-75
2023/04/21 11:29:02;;;;;;;4.72;3.20;;;18.70;59.80;;;;;;2395914;57;21531;-75
2023/04/21 11:31:29;;;;;;;4.95;3.17;;;18.80;59.40;;;;;;2396252;57;21019;-73
2023/04/21 11:33:59;;;;;;;4.53;3.03;;;18.80;59.40;;;;;;2183199;58;20979;-75
2023/04/21 11:36:26;;;;;;;4.65;3.33;;;18.90;59.10;;;;;;2386641;57;21065;-73
2023/04/21 11:38:52;;;;;;;4.50;3.20;;;19.00;59.40;;;;;;2183739;58;21023;-74
2023/04/21 11:41:22;;;;;;;4.87;3.35;;;19.10;59.50;;;;;;2395914;57;21095;-73
2023/04/21 11:43:49;;;;;;;6.45;3.50;;;19.20;59.20;;;;;;2184122;58;21382;-75
2023/04/21 11:46:25;;;;;;;6.28;3.37;;;19.30;59.10;;;;;;2185500;58;20955;-74
2023/04/21 11:49:00;;;;;;;4.18;2.83;;;19.40;58.40;;;;;;2184321;58;20951;-75
2023/04/21 11:51:34;;;;;;;4.10;2.70;;;19.50;58.80;;;;;;2397913;57;20971;-77
2023/04/21 11:54:01;;;;;;;4.70;3.08;;;19.60;58.60;;;;;;2186286;58;21044;-75
2023/04/21 11:56:27;;;;;;;4.07;2.90;;;19.60;58.70;;;;;;2183306;57;21057;-73
2023/04/21 11:58:54;;;;;;;4.68;3.12;;;19.70;58.70;;;;;;2391398;57;21751;-76
2023/04/21 12:01:21;;;;;;;4.68;3.15;;;19.80;58.60;;;;;;2389568;57;20990;-76
2023/04/21 12:03:53;;;;;;;5.55;3.37;;;19.80;58.50;;;;;;2181828;57;21007;-74
2023/04/21 12:06:29;;;;;;;5.68;4.40;;;19.90;58.20;;;;;;2184285;58;21577;-74
2023/04/21 12:09:01;;;;;;;4.62;3.40;;;20.10;58.00;;;;;;2396473;57;21027;-74
2023/04/21 12:11:28;;;;;;;5.22;3.65;;;20.20;58.60;;;;;;2396392;57;20963;-73
2023/04/21 12:13:58;;;;;;;4.32;3.17;;;20.20;58.30;;;;;;2395714;57;21007;-73
2023/04/21 12:16:26;;;;;;;5.10;3.65;;;20.30;57.90;;;;;;2183803;58;20998;-74
2023/04/21 12:18:52;;;;;;;5.47;3.35;;;20.40;58.00;;;;;;2395781;57;20959;-75
2023/04/21 12:21:19;;;;;;;4.97;3.30;;;20.50;57.80;;;;;;2183650;57;21041;-75
2023/04/21 12:23:45;;;;;;;4.62;3.30;;;20.50;57.50;;;;;;2389221;57;22001;-74
2023/04/21 12:26:11;;;;;;;5.87;3.87;;;20.60;57.40;;;;;;2183859;58;21505;-75
2023/04/21 12:28:38;;;;;;;5.07;3.60;;;20.60;57.10;;;;;;2182692;58;21006;-76
2023/04/21 12:31:07;;;;;;;5.40;3.80;;;20.60;57.00;;;;;;2183396;58;20995;-75
2023/04/21 12:33:33;;;;;;;5.03;3.22;;;20.60;56.90;;;;;;2394007;57;21004;-75
2023/04/21 12:35:59;;;;;;;5.68;3.92;;;20.70;57.20;;;;;;2177451;57;21052;-74
2023/04/21 12:38:28;;;;;;;6.30;4.35;;;20.70;57.10;;;;;;2387586;57;21064;-78
2023/04/21 12:40:55;;;;;;;6.37;4.20;;;20.70;56.90;;;;;;2395585;57;21802;-74
2023/04/21 12:43:21;;;;;;;6.07;4.15;;;20.80;56.80;;;;;;2184049;59;25404;-77
2023/04/21 12:45:49;;;;;;;5.22;3.60;;;20.80;56.60;;;;;;2177672;57;20996;-74
2023/04/21 12:48:15;;;;;;;5.53;3.42;;;20.80;56.50;;;;;;2184137;58;20974;-74
2023/04/21 12:50:41;;;;;;;5.20;3.62;;;20.80;56.60;;;;;;2395940;57;21023;-74
2023/04/21 12:53:07;;;;;;;5.03;3.30;;;20.80;56.70;;;;;;2396423;57;20971;-76
2023/04/21 12:55:35;;;;;;;5.70;3.85;;;20.90;56.60;;;;;;2396451;57;21022;-76
2023/04/21 12:58:01;;;;;;;5.43;3.55;;;20.90;56.60;;;;;;2184057;58;21516;-76
2023/04/21 13:00:28;;;;;;;5.32;3.47;;;20.90;56.40;;;;;;2396035;57;21021;-74